sensor_id;sensor_type;location;lat;lon;timestamp;temperature;humidity
22081;DHT22;11207;59.512;18.050;2023-11-21T00:00:34;1.00;99.90
22081;DHT22;11207;59.512;18.050;2023-11-21T00:02:59;1.00;99.90
22081;DHT22;11207;59.512;18.050;2023-11-21T00:05:25;1.00;99.90
22081;DHT22;11207;59.512;18.050;2023-11-21T00:07:51;1.00;99.90
22081;DHT22;11207;59.512;18.050;2023-11-21T00:10:17;1.00;99.90
22081;DHT22;11207;59.512;18.050;2023-11-21T00:12:43;1.00;99.90
22081;DHT22;11207;59.512;18.050;2023-11-21T00:15:09;1.00;99.90
22081;DHT22;11207;59.512;18.050;2023-11-21T00:17:38;1.00;99.90
22081;DHT22;11207;59.512;18.050;2023-11-21T00:20:06;1.00;99.90
22081;DHT22;11207;59.512;18.050;2023-11-21T00:22:36;1.00;99.90
22081;DHT22;11207;59.512;18.050;2023-11-21T00:25:02;1.00;99.90
22081;DHT22;11207;59.512;18.050;2023-11-21T00:27:29;1.00;99.90
22081;DHT22;11207;59.512;18.050;2023-11-21T00:29:55;1.00;99.90
22081;DHT22;11207;59.512;18.050;2023-11-21T00:32:20;1.00;99.90
22081;DHT22;11207;59.512;18.050;2023-11-21T00:34:46;1.00;99.90
22081;DHT22;11207;59.512;18.050;2023-11-21T00:37:12;1.10;99.90
22081;DHT22;11207;59.512;18.050;2023-11-21T00:39:37;1.10;99.90
22081;DHT22;11207;59.512;18.050;2023-11-21T00:42:03;1.10;99.90
22081;DHT22;11207;59.512;18.050;2023-11-21T00:44:30;1.10;99.90
22081;DHT22;11207;59.512;18.050;2023-11-21T00:46:56;1.10;99.90
22081;DHT22;11207;59.512;18.050;2023-11-21T00:49:21;1.10;99.90
22081;DHT22;11207;59.512;18.050;2023-11-21T00:51:48;1.10;99.90
22081;DHT22;11207;59.512;18.050;2023-11-21T00:54:13;1.10;99.90
22081;DHT22;11207;59.512;18.050;2023-11-21T00:56:39;1.10;99.90
22081;DHT22;11207;59.512;18.050;2023-11-21T00:59:05;1.10;99.90
22081;DHT22;11207;59.512;18.050;2023-11-21T01:01:32;1.10;99.90
22081;DHT22;11207;59.512;18.050;2023-11-21T01:03:58;1.10;99.90
22081;DHT22;11207;59.512;18.050;2023-11-21T01:06:23;1.10;99.90
22081;DHT22;11207;59.512;18.050;2023-11-21T01:08:49;1.10;99.90
22081;DHT22;11207;59.512;18.050;2023-11-21T01:11:14;1.10;99.90
22081;DHT22;11207;59.512;18.050;2023-11-21T01:13:41;1.10;99.90
22081;DHT22;11207;59.512;18.050;2023-11-21T01:16:08;1.10;99.90
22081;DHT22;11207;59.512;18.050;2023-11-21T01:18:35;1.10;99.90
22081;DHT22;11207;59.512;18.050;2023-11-21T01:21:01;1.10;99.90
22081;DHT22;11207;59.512;18.050;2023-11-21T01:23:27;1.00;99.90
22081;DHT22;11207;59.512;18.050;2023-11-21T01:25:54;1.10;99.90
22081;DHT22;11207;59.512;18.050;2023-11-21T01:28:20;1.10;99.90
22081;DHT22;11207;59.512;18.050;2023-11-21T01:30:46;1.10;99.90
22081;DHT22;11207;59.512;18.050;2023-11-21T01:33:11;1.10;99.90
22081;DHT22;11207;59.512;18.050;2023-11-21T01:35:37;1.10;99.90
22081;DHT22;11207;59.512;18.050;2023-11-21T01:38:03;1.10;99.90
22081;DHT22;11207;59.512;18.050;2023-11-21T01:40:29;1.20;99.90
22081;DHT22;11207;59.512;18.050;2023-11-21T01:42:56;1.20;99.90
22081;DHT22;11207;59.512;18.050;2023-11-21T01:45:23;1.20;99.90
22081;DHT22;11207;59.512;18.050;2023-11-21T01:47:50;1.10;99.90
22081;DHT22;11207;59.512;18.050;2023-11-21T01:50:16;1.20;99.90
22081;DHT22;11207;59.512;18.050;2023-11-21T01:52:45;1.20;99.90
22081;DHT22;11207;59.512;18.050;2023-11-21T01:55:11;1.20;99.90
22081;DHT22;11207;59.512;18.050;2023-11-21T01:57:37;1.20;99.90
22081;DHT22;11207;59.512;18.050;2023-11-21T02:00:04;1.20;99.90
22081;DHT22;11207;59.512;18.050;2023-11-21T02:02:48;1.20;99.90
22081;DHT22;11207;59.512;18.050;2023-11-21T02:05:18;1.20;99.90
22081;DHT22;11207;59.512;18.050;2023-11-21T02:07:45;1.20;99.90
22081;DHT22;11207;59.512;18.050;2023-11-21T02:10:16;1.20;99.90
22081;DHT22;11207;59.512;18.050;2023-11-21T02:12:42;1.20;99.90
22081;DHT22;11207;59.512;18.050;2023-11-21T02:15:13;1.20;99.90
22081;DHT22;11207;59.512;18.050;2023-11-21T02:17:52;1.20;99.90
22081;DHT22;11207;59.512;18.050;2023-11-21T02:20:19;1.20;99.90
22081;DHT22;11207;59.512;18.050;2023-11-21T02:22:56;1.20;99.90
22081;DHT22;11207;59.512;18.050;2023-11-21T02:25:32;1.20;99.90
22081;DHT22;11207;59.512;18.050;2023-11-21T02:28:00;1.20;99.90
22081;DHT22;11207;59.512;18.050;2023-11-21T02:30:26;1.20;99.90
22081;DHT22;11207;59.512;18.050;2023-11-21T02:33:00;1.20;99.90
22081;DHT22;11207;59.512;18.050;2023-11-21T02:35:26;1.20;99.90
22081;DHT22;11207;59.512;18.050;2023-11-21T02:37:52;1.20;99.90
22081;DHT22;11207;59.512;18.050;2023-11-21T02:40:18;1.20;99.90
22081;DHT22;11207;59.512;18.050;2023-11-21T02:42:46;1.30;99.90
22081;DHT22;11207;59.512;18.050;2023-11-21T02:45:13;1.30;99.90
22081;DHT22;11207;59.512;18.050;2023-11-21T02:47:39;1.30;99.90
22081;DHT22;11207;59.512;18.050;2023-11-21T02:50:06;1.30;99.90
22081;DHT22;11207;59.512;18.050;2023-11-21T02:52:34;1.30;99.90
22081;DHT22;11207;59.512;18.050;2023-11-21T02:55:01;1.30;99.90
22081;DHT22;11207;59.512;18.050;2023-11-21T02:57:26;1.30;99.90
22081;DHT22;11207;59.512;18.050;2023-11-21T02:59:52;1.30;99.90
22081;DHT22;11207;59.512;18.050;2023-11-21T03:02:18;1.30;99.90
22081;DHT22;11207;59.512;18.050;2023-11-21T03:04:43;1.30;99.90
22081;DHT22;11207;59.512;18.050;2023-11-21T03:07:09;1.30;99.90
22081;DHT22;11207;59.512;18.050;2023-11-21T03:09:35;1.40;99.90
22081;DHT22;11207;59.512;18.050;2023-11-21T03:12:02;1.40;99.90
22081;DHT22;11207;59.512;18.050;2023-11-21T03:14:27;1.40;99.90
22081;DHT22;11207;59.512;18.050;2023-11-21T03:16:53;1.40;99.90
22081;DHT22;11207;59.512;18.050;2023-11-21T03:19:18;1.40;99.90
22081;DHT22;11207;59.512;18.050;2023-11-21T03:21:44;1.40;99.90
22081;DHT22;11207;59.512;18.050;2023-11-21T03:24:09;1.40;99.90
22081;DHT22;11207;59.512;18.050;2023-11-21T03:26:35;1.40;99.90
22081;DHT22;11207;59.512;18.050;2023-11-21T03:29:02;1.40;99.90
22081;DHT22;11207;59.512;18.050;2023-11-21T03:31:28;1.40;99.90
22081;DHT22;11207;59.512;18.050;2023-11-21T03:33:54;1.40;99.90
22081;DHT22;11207;59.512;18.050;2023-11-21T03:36:20;1.40;99.90
22081;DHT22;11207;59.512;18.050;2023-11-21T03:38:47;1.50;99.90
22081;DHT22;11207;59.512;18.050;2023-11-21T03:41:13;1.50;99.90
22081;DHT22;11207;59.512;18.050;2023-11-21T03:43:40;1.50;99.90
22081;DHT22;11207;59.512;18.050;2023-11-21T03:46:05;1.50;99.90
22081;DHT22;11207;59.512;18.050;2023-11-21T03:48:31;1.50;99.90
22081;DHT22;11207;59.512;18.050;2023-11-21T03:50:58;1.50;99.90
22081;DHT22;11207;59.512;18.050;2023-11-21T03:53:24;1.50;99.90
22081;DHT22;11207;59.512;18.050;2023-11-21T03:55:49;1.60;99.90
22081;DHT22;11207;59.512;18.050;2023-11-21T03:58:15;1.60;99.90
22081;DHT22;11207;59.512;18.050;2023-11-21T04:00:41;1.60;99.90
22081;DHT22;11207;59.512;18.050;2023-11-21T04:03:06;1.50;99.90
22081;DHT22;11207;59.512;18.050;2023-11-21T04:05:33;1.50;99.90
22081;DHT22;11207;59.512;18.050;2023-11-21T04:07:58;1.50;99.90
22081;DHT22;11207;59.512;18.050;2023-11-21T04:10:24;1.50;99.90
22081;DHT22;11207;59.512;18.050;2023-11-21T04:12:50;1.50;99.90
22081;DHT22;11207;59.512;18.050;2023-11-21T04:15:15;1.60;99.90
22081;DHT22;11207;59.512;18.050;2023-11-21T04:17:42;1.60;99.90
22081;DHT22;11207;59.512;18.050;2023-11-21T04:20:08;1.60;99.90
22081;DHT22;11207;59.512;18.050;2023-11-21T04:22:44;1.60;99.90
22081;DHT22;11207;59.512;18.050;2023-11-21T04:25:15;1.60;99.90
22081;DHT22;11207;59.512;18.050;2023-11-21T04:27:41;1.60;99.90
22081;DHT22;11207;59.512;18.050;2023-11-21T04:30:09;1.60;99.90
22081;DHT22;11207;59.512;18.050;2023-11-21T04:32:35;1.60;99.90
22081;DHT22;11207;59.512;18.050;2023-11-21T04:35:01;1.60;99.90
22081;DHT22;11207;59.512;18.050;2023-11-21T04:37:27;1.60;99.90
22081;DHT22;11207;59.512;18.050;2023-11-21T04:39:52;1.60;99.90
22081;DHT22;11207;59.512;18.050;2023-11-21T04:42:18;1.60;99.90
22081;DHT22;11207;59.512;18.050;2023-11-21T04:44:43;1.60;99.90
22081;DHT22;11207;59.512;18.050;2023-11-21T04:47:10;1.60;99.90
22081;DHT22;11207;59.512;18.050;2023-11-21T04:49:35;1.60;99.90
22081;DHT22;11207;59.512;18.050;2023-11-21T04:52:01;1.60;99.90
22081;DHT22;11207;59.512;18.050;2023-11-21T04:54:27;1.60;99.90
22081;DHT22;11207;59.512;18.050;2023-11-21T04:56:53;1.60;99.90
22081;DHT22;11207;59.512;18.050;2023-11-21T04:59:19;1.60;99.90
22081;DHT22;11207;59.512;18.050;2023-11-21T05:01:45;1.60;99.90
22081;DHT22;11207;59.512;18.050;2023-11-21T05:04:10;1.60;99.90
22081;DHT22;11207;59.512;18.050;2023-11-21T05:06:36;1.60;99.90
22081;DHT22;11207;59.512;18.050;2023-11-21T05:09:02;1.60;99.90
22081;DHT22;11207;59.512;18.050;2023-11-21T05:11:28;1.60;99.90
22081;DHT22;11207;59.512;18.050;2023-11-21T05:13:57;1.70;99.90
22081;DHT22;11207;59.512;18.050;2023-11-21T05:16:25;1.70;99.90
22081;DHT22;11207;59.512;18.050;2023-11-21T05:18:53;1.60;99.90
22081;DHT22;11207;59.512;18.050;2023-11-21T05:21:18;1.60;99.90
22081;DHT22;11207;59.512;18.050;2023-11-21T05:23:46;1.60;99.90
22081;DHT22;11207;59.512;18.050;2023-11-21T05:26:12;1.60;99.90
22081;DHT22;11207;59.512;18.050;2023-11-21T05:28:37;1.60;99.90
22081;DHT22;11207;59.512;18.050;2023-11-21T05:31:03;1.60;99.90
22081;DHT22;11207;59.512;18.050;2023-11-21T05:33:29;1.60;99.90
22081;DHT22;11207;59.512;18.050;2023-11-21T05:35:54;1.60;99.90
22081;DHT22;11207;59.512;18.050;2023-11-21T05:38:20;1.60;99.90
22081;DHT22;11207;59.512;18.050;2023-11-21T05:40:48;1.60;99.90
22081;DHT22;11207;59.512;18.050;2023-11-21T05:43:13;1.50;99.90
22081;DHT22;11207;59.512;18.050;2023-11-21T05:45:40;1.60;99.90
22081;DHT22;11207;59.512;18.050;2023-11-21T05:48:06;1.60;99.90
22081;DHT22;11207;59.512;18.050;2023-11-21T05:50:32;1.50;99.90
22081;DHT22;11207;59.512;18.050;2023-11-21T05:52:58;1.50;99.90
22081;DHT22;11207;59.512;18.050;2023-11-21T05:55:26;1.60;99.90
22081;DHT22;11207;59.512;18.050;2023-11-21T05:57:52;1.50;99.90
22081;DHT22;11207;59.512;18.050;2023-11-21T06:00:18;1.50;99.90
22081;DHT22;11207;59.512;18.050;2023-11-21T06:02:54;1.60;99.90
22081;DHT22;11207;59.512;18.050;2023-11-21T06:05:22;1.60;99.90
22081;DHT22;11207;59.512;18.050;2023-11-21T06:07:49;1.60;99.90
22081;DHT22;11207;59.512;18.050;2023-11-21T06:10:16;1.60;99.90
22081;DHT22;11207;59.512;18.050;2023-11-21T06:12:45;1.60;99.90
22081;DHT22;11207;59.512;18.050;2023-11-21T06:15:11;1.60;99.90
22081;DHT22;11207;59.512;18.050;2023-11-21T06:17:42;1.60;99.90
22081;DHT22;11207;59.512;18.050;2023-11-21T06:20:10;1.50;99.90
22081;DHT22;11207;59.512;18.050;2023-11-21T06:22:41;1.60;99.90
22081;DHT22;11207;59.512;18.050;2023-11-21T06:25:08;1.60;99.90
22081;DHT22;11207;59.512;18.050;2023-11-21T06:27:42;1.60;99.90
22081;DHT22;11207;59.512;18.050;2023-11-21T06:30:08;1.60;99.90
22081;DHT22;11207;59.512;18.050;2023-11-21T06:32:39;1.60;99.90
22081;DHT22;11207;59.512;18.050;2023-11-21T06:35:07;1.60;99.90
22081;DHT22;11207;59.512;18.050;2023-11-21T06:37:33;1.60;99.90
22081;DHT22;11207;59.512;18.050;2023-11-21T06:40:00;1.60;99.90
22081;DHT22;11207;59.512;18.050;2023-11-21T06:42:27;1.60;99.90
22081;DHT22;11207;59.512;18.050;2023-11-21T06:44:54;1.50;99.90
22081;DHT22;11207;59.512;18.050;2023-11-21T06:47:23;1.70;99.90
22081;DHT22;11207;59.512;18.050;2023-11-21T06:49:54;1.60;99.90
22081;DHT22;11207;59.512;18.050;2023-11-21T06:52:20;1.60;99.90
22081;DHT22;11207;59.512;18.050;2023-11-21T06:54:47;1.50;99.90
22081;DHT22;11207;59.512;18.050;2023-11-21T06:57:13;1.50;99.90
22081;DHT22;11207;59.512;18.050;2023-11-21T06:59:39;1.50;99.90
22081;DHT22;11207;59.512;18.050;2023-11-21T07:02:06;1.60;99.90
22081;DHT22;11207;59.512;18.050;2023-11-21T07:04:33;1.60;99.90
22081;DHT22;11207;59.512;18.050;2023-11-21T07:06:59;1.60;99.90
22081;DHT22;11207;59.512;18.050;2023-11-21T07:09:25;1.60;99.90
22081;DHT22;11207;59.512;18.050;2023-11-21T07:11:52;1.60;99.90
22081;DHT22;11207;59.512;18.050;2023-11-21T07:14:18;1.60;99.90
22081;DHT22;11207;59.512;18.050;2023-11-21T07:16:46;1.70;99.90
22081;DHT22;11207;59.512;18.050;2023-11-21T07:19:13;1.60;99.90
22081;DHT22;11207;59.512;18.050;2023-11-21T07:21:40;1.60;99.90
22081;DHT22;11207;59.512;18.050;2023-11-21T07:24:08;1.60;99.90
22081;DHT22;11207;59.512;18.050;2023-11-21T07:26:35;1.60;99.90
22081;DHT22;11207;59.512;18.050;2023-11-21T07:29:02;1.60;99.90
22081;DHT22;11207;59.512;18.050;2023-11-21T07:31:29;1.60;99.90
22081;DHT22;11207;59.512;18.050;2023-11-21T07:33:55;1.60;99.90
22081;DHT22;11207;59.512;18.050;2023-11-21T07:36:24;1.70;99.90
22081;DHT22;11207;59.512;18.050;2023-11-21T07:38:50;1.70;99.90
22081;DHT22;11207;59.512;18.050;2023-11-21T07:41:16;1.70;99.90
22081;DHT22;11207;59.512;18.050;2023-11-21T07:43:43;1.60;99.90
22081;DHT22;11207;59.512;18.050;2023-11-21T07:46:10;1.60;99.90
22081;DHT22;11207;59.512;18.050;2023-11-21T07:48:38;1.60;99.90
22081;DHT22;11207;59.512;18.050;2023-11-21T07:51:04;1.60;99.90
22081;DHT22;11207;59.512;18.050;2023-11-21T07:53:29;1.60;99.90
22081;DHT22;11207;59.512;18.050;2023-11-21T07:56:02;1.60;99.90
22081;DHT22;11207;59.512;18.050;2023-11-21T07:58:28;1.60;99.90
22081;DHT22;11207;59.512;18.050;2023-11-21T08:00:54;1.60;99.90
22081;DHT22;11207;59.512;18.050;2023-11-21T08:03:20;1.60;99.90
22081;DHT22;11207;59.512;18.050;2023-11-21T08:06:03;1.60;99.90
22081;DHT22;11207;59.512;18.050;2023-11-21T08:08:49;1.80;99.90
22081;DHT22;11207;59.512;18.050;2023-11-21T08:11:15;1.60;99.90
22081;DHT22;11207;59.512;18.050;2023-11-21T08:13:42;1.60;99.90
22081;DHT22;11207;59.512;18.050;2023-11-21T08:16:07;1.60;99.90
22081;DHT22;11207;59.512;18.050;2023-11-21T08:18:33;1.60;99.90
22081;DHT22;11207;59.512;18.050;2023-11-21T08:21:00;1.60;99.90
22081;DHT22;11207;59.512;18.050;2023-11-21T08:23:26;1.60;99.90
22081;DHT22;11207;59.512;18.050;2023-11-21T08:25:53;1.60;99.90
22081;DHT22;11207;59.512;18.050;2023-11-21T08:28:19;1.60;99.90
22081;DHT22;11207;59.512;18.050;2023-11-21T08:30:45;1.60;99.90
22081;DHT22;11207;59.512;18.050;2023-11-21T08:33:10;1.60;99.90
22081;DHT22;11207;59.512;18.050;2023-11-21T08:35:38;1.60;99.90
22081;DHT22;11207;59.512;18.050;2023-11-21T08:38:04;1.60;99.90
22081;DHT22;11207;59.512;18.050;2023-11-21T08:40:31;1.60;99.90
22081;DHT22;11207;59.512;18.050;2023-11-21T08:42:57;1.70;99.90
22081;DHT22;11207;59.512;18.050;2023-11-21T08:45:24;1.70;99.90
22081;DHT22;11207;59.512;18.050;2023-11-21T08:47:51;1.70;99.90
22081;DHT22;11207;59.512;18.050;2023-11-21T08:50:17;1.70;99.90
22081;DHT22;11207;59.512;18.050;2023-11-21T08:52:43;1.70;99.90
22081;DHT22;11207;59.512;18.050;2023-11-21T08:55:09;1.70;99.90
22081;DHT22;11207;59.512;18.050;2023-11-21T08:57:38;1.70;99.90
22081;DHT22;11207;59.512;18.050;2023-11-21T09:00:05;1.70;99.90
22081;DHT22;11207;59.512;18.050;2023-11-21T09:02:35;1.70;99.90
22081;DHT22;11207;59.512;18.050;2023-11-21T09:05:03;1.70;99.90
22081;DHT22;11207;59.512;18.050;2023-11-21T09:07:29;1.70;99.90
22081;DHT22;11207;59.512;18.050;2023-11-21T09:09:55;1.70;99.90
22081;DHT22;11207;59.512;18.050;2023-11-21T09:12:21;1.70;99.90
22081;DHT22;11207;59.512;18.050;2023-11-21T09:14:47;1.70;99.90
22081;DHT22;11207;59.512;18.050;2023-11-21T09:17:13;1.70;99.90
22081;DHT22;11207;59.512;18.050;2023-11-21T09:19:40;1.70;99.90
22081;DHT22;11207;59.512;18.050;2023-11-21T09:22:07;1.70;99.90
22081;DHT22;11207;59.512;18.050;2023-11-21T09:24:33;1.70;99.90
22081;DHT22;11207;59.512;18.050;2023-11-21T09:26:58;1.70;99.90
22081;DHT22;11207;59.512;18.050;2023-11-21T09:29:28;1.70;99.90
22081;DHT22;11207;59.512;18.050;2023-11-21T09:31:55;1.70;99.90
22081;DHT22;11207;59.512;18.050;2023-11-21T09:34:25;1.70;99.90
22081;DHT22;11207;59.512;18.050;2023-11-21T09:36:51;1.70;99.90
22081;DHT22;11207;59.512;18.050;2023-11-21T09:39:17;1.70;99.90
22081;DHT22;11207;59.512;18.050;2023-11-21T09:41:50;1.70;99.90
22081;DHT22;11207;59.512;18.050;2023-11-21T09:44:28;1.70;99.90
22081;DHT22;11207;59.512;18.050;2023-11-21T09:46:57;1.80;99.90
22081;DHT22;11207;59.512;18.050;2023-11-21T09:49:26;1.80;99.90
22081;DHT22;11207;59.512;18.050;2023-11-21T09:51:55;1.80;99.90
22081;DHT22;11207;59.512;18.050;2023-11-21T09:54:23;1.80;99.90
22081;DHT22;11207;59.512;18.050;2023-11-21T09:56:49;1.80;99.90
22081;DHT22;11207;59.512;18.050;2023-11-21T09:59:16;1.80;99.90
22081;DHT22;11207;59.512;18.050;2023-11-21T10:01:42;1.80;99.90
22081;DHT22;11207;59.512;18.050;2023-11-21T10:04:11;1.70;99.90
22081;DHT22;11207;59.512;18.050;2023-11-21T10:06:40;1.80;99.90
22081;DHT22;11207;59.512;18.050;2023-11-21T10:09:12;1.80;99.90
22081;DHT22;11207;59.512;18.050;2023-11-21T10:11:42;1.80;99.90
22081;DHT22;11207;59.512;18.050;2023-11-21T10:14:12;1.80;99.90
22081;DHT22;11207;59.512;18.050;2023-11-21T10:16:42;1.70;99.90
22081;DHT22;11207;59.512;18.050;2023-11-21T10:19:10;1.70;99.90
22081;DHT22;11207;59.512;18.050;2023-11-21T10:21:38;1.70;99.90
22081;DHT22;11207;59.512;18.050;2023-11-21T10:24:04;1.70;99.90
22081;DHT22;11207;59.512;18.050;2023-11-21T10:26:32;1.70;99.90
22081;DHT22;11207;59.512;18.050;2023-11-21T10:28:58;1.70;99.90
22081;DHT22;11207;59.512;18.050;2023-11-21T10:31:27;1.70;99.90
22081;DHT22;11207;59.512;18.050;2023-11-21T10:33:53;1.70;99.90
22081;DHT22;11207;59.512;18.050;2023-11-21T10:36:28;1.70;99.90
22081;DHT22;11207;59.512;18.050;2023-11-21T10:38:54;1.80;99.90
22081;DHT22;11207;59.512;18.050;2023-11-21T10:41:20;1.80;99.90
22081;DHT22;11207;59.512;18.050;2023-11-21T10:43:47;1.80;99.90
22081;DHT22;11207;59.512;18.050;2023-11-21T10:46:14;1.80;99.90
22081;DHT22;11207;59.512;18.050;2023-11-21T10:48:43;1.90;99.90
22081;DHT22;11207;59.512;18.050;2023-11-21T10:51:09;1.90;99.90
22081;DHT22;11207;59.512;18.050;2023-11-21T10:53:42;1.90;99.90
22081;DHT22;11207;59.512;18.050;2023-11-21T10:56:09;1.90;99.90
22081;DHT22;11207;59.512;18.050;2023-11-21T10:58:43;1.90;99.90
22081;DHT22;11207;59.512;18.050;2023-11-21T11:01:10;1.90;99.90
22081;DHT22;11207;59.512;18.050;2023-11-21T11:03:40;1.90;99.90
22081;DHT22;11207;59.512;18.050;2023-11-21T11:06:06;1.90;99.90
22081;DHT22;11207;59.512;18.050;2023-11-21T11:08:40;1.90;99.90
22081;DHT22;11207;59.512;18.050;2023-11-21T11:11:06;1.90;99.90
22081;DHT22;11207;59.512;18.050;2023-11-21T11:13:32;1.90;99.90
22081;DHT22;11207;59.512;18.050;2023-11-21T11:16:00;1.80;99.90
22081;DHT22;11207;59.512;18.050;2023-11-21T11:18:30;1.80;99.90
22081;DHT22;11207;59.512;18.050;2023-11-21T11:21:11;1.80;99.90
22081;DHT22;11207;59.512;18.050;2023-11-21T11:35:23;2.00;99.90
22081;DHT22;11207;59.512;18.050;2023-11-21T11:37:50;2.10;99.90
22081;DHT22;11207;59.512;18.050;2023-11-21T11:40:16;2.10;99.90
22081;DHT22;11207;59.512;18.050;2023-11-21T11:42:58;2.00;99.90
22081;DHT22;11207;59.512;18.050;2023-11-21T11:45:34;2.00;99.90
22081;DHT22;11207;59.512;18.050;2023-11-21T11:48:01;1.90;99.90
22081;DHT22;11207;59.512;18.050;2023-11-21T11:50:29;1.90;99.90
22081;DHT22;11207;59.512;18.050;2023-11-21T11:52:55;1.80;99.90
22081;DHT22;11207;59.512;18.050;2023-11-21T11:55:38;1.70;99.90
22081;DHT22;11207;59.512;18.050;2023-11-21T11:58:05;1.80;99.90
22081;DHT22;11207;59.512;18.050;2023-11-21T12:03:01;1.80;99.90
22081;DHT22;11207;59.512;18.050;2023-11-21T12:05:29;1.80;99.90
22081;DHT22;11207;59.512;18.050;2023-11-21T12:08:00;1.90;99.90
22081;DHT22;11207;59.512;18.050;2023-11-21T12:10:29;1.90;99.90
22081;DHT22;11207;59.512;18.050;2023-11-21T12:12:57;1.90;99.90
22081;DHT22;11207;59.512;18.050;2023-11-21T12:15:24;1.90;99.90
22081;DHT22;11207;59.512;18.050;2023-11-21T12:17:52;1.80;99.90
22081;DHT22;11207;59.512;18.050;2023-11-21T12:20:22;1.80;99.90
22081;DHT22;11207;59.512;18.050;2023-11-21T12:22:50;1.80;99.90
22081;DHT22;11207;59.512;18.050;2023-11-21T12:25:19;1.80;99.90
22081;DHT22;11207;59.512;18.050;2023-11-21T12:27:49;1.80;99.90
22081;DHT22;11207;59.512;18.050;2023-11-21T12:30:17;1.80;99.90
22081;DHT22;11207;59.512;18.050;2023-11-21T12:32:44;1.80;99.90
22081;DHT22;11207;59.512;18.050;2023-11-21T12:35:12;1.80;99.90
22081;DHT22;11207;59.512;18.050;2023-11-21T12:37:38;1.80;99.90
22081;DHT22;11207;59.512;18.050;2023-11-21T12:40:09;1.80;99.90
22081;DHT22;11207;59.512;18.050;2023-11-21T12:42:40;1.80;99.90
22081;DHT22;11207;59.512;18.050;2023-11-21T12:47:45;1.60;99.90
22081;DHT22;11207;59.512;18.050;2023-11-21T12:50:11;1.50;99.90
22081;DHT22;11207;59.512;18.050;2023-11-21T12:52:46;1.40;99.90
22081;DHT22;11207;59.512;18.050;2023-11-21T12:55:20;1.40;99.90
22081;DHT22;11207;59.512;18.050;2023-11-21T12:57:54;1.40;99.90
22081;DHT22;11207;59.512;18.050;2023-11-21T13:00:22;1.40;99.90
22081;DHT22;11207;59.512;18.050;2023-11-21T13:02:54;1.40;99.90
22081;DHT22;11207;59.512;18.050;2023-11-21T13:05:29;1.30;99.90
22081;DHT22;11207;59.512;18.050;2023-11-21T13:07:57;1.40;99.90
22081;DHT22;11207;59.512;18.050;2023-11-21T13:10:26;1.40;99.90
22081;DHT22;11207;59.512;18.050;2023-11-21T13:13:00;1.40;99.90
22081;DHT22;11207;59.512;18.050;2023-11-21T13:15:27;1.40;99.90
22081;DHT22;11207;59.512;18.050;2023-11-21T13:17:54;1.40;99.90
22081;DHT22;11207;59.512;18.050;2023-11-21T13:20:21;1.40;99.90
22081;DHT22;11207;59.512;18.050;2023-11-21T13:22:49;1.40;99.90
22081;DHT22;11207;59.512;18.050;2023-11-21T13:25:17;1.40;99.90
22081;DHT22;11207;59.512;18.050;2023-11-21T13:27:44;1.30;99.90
22081;DHT22;11207;59.512;18.050;2023-11-21T13:30:12;1.40;99.90
22081;DHT22;11207;59.512;18.050;2023-11-21T13:32:41;1.30;99.90
22081;DHT22;11207;59.512;18.050;2023-11-21T13:35:07;1.30;99.90
22081;DHT22;11207;59.512;18.050;2023-11-21T13:37:39;1.30;99.90
22081;DHT22;11207;59.512;18.050;2023-11-21T13:40:06;1.20;99.90
22081;DHT22;11207;59.512;18.050;2023-11-21T13:42:40;1.20;99.90
22081;DHT22;11207;59.512;18.050;2023-11-21T13:45:06;1.20;99.90
22081;DHT22;11207;59.512;18.050;2023-11-21T13:47:32;1.10;99.90
22081;DHT22;11207;59.512;18.050;2023-11-21T13:49:59;1.00;99.90
22081;DHT22;11207;59.512;18.050;2023-11-21T13:52:26;1.00;99.90
22081;DHT22;11207;59.512;18.050;2023-11-21T13:54:53;0.90;99.90
22081;DHT22;11207;59.512;18.050;2023-11-21T13:57:19;0.80;99.90
22081;DHT22;11207;59.512;18.050;2023-11-21T13:59:46;0.80;99.90
22081;DHT22;11207;59.512;18.050;2023-11-21T14:02:11;0.70;99.90
22081;DHT22;11207;59.512;18.050;2023-11-21T14:04:44;0.70;99.90
22081;DHT22;11207;59.512;18.050;2023-11-21T14:07:26;0.60;99.90
22081;DHT22;11207;59.512;18.050;2023-11-21T14:10:11;0.60;99.90
22081;DHT22;11207;59.512;18.050;2023-11-21T14:12:39;0.50;99.90
22081;DHT22;11207;59.512;18.050;2023-11-21T14:15:09;0.50;99.90
22081;DHT22;11207;59.512;18.050;2023-11-21T14:17:37;0.40;99.90
22081;DHT22;11207;59.512;18.050;2023-11-21T14:20:05;0.30;99.90
22081;DHT22;11207;59.512;18.050;2023-11-21T14:22:32;0.30;99.90
22081;DHT22;11207;59.512;18.050;2023-11-21T14:24:58;0.20;99.90
22081;DHT22;11207;59.512;18.050;2023-11-21T14:27:25;0.20;99.90
22081;DHT22;11207;59.512;18.050;2023-11-21T14:29:51;0.20;99.90
22081;DHT22;11207;59.512;18.050;2023-11-21T14:32:18;0.20;99.90
22081;DHT22;11207;59.512;18.050;2023-11-21T14:34:43;0.20;99.90
22081;DHT22;11207;59.512;18.050;2023-11-21T14:37:12;0.20;99.90
22081;DHT22;11207;59.512;18.050;2023-11-21T14:39:39;0.20;99.90
22081;DHT22;11207;59.512;18.050;2023-11-21T14:42:10;0.20;99.90
22081;DHT22;11207;59.512;18.050;2023-11-21T14:44:35;0.20;99.90
22081;DHT22;11207;59.512;18.050;2023-11-21T14:47:05;0.20;99.90
22081;DHT22;11207;59.512;18.050;2023-11-21T14:49:43;0.20;99.90
22081;DHT22;11207;59.512;18.050;2023-11-21T14:52:22;0.10;99.90
22081;DHT22;11207;59.512;18.050;2023-11-21T14:55:01;0.10;99.90
22081;DHT22;11207;59.512;18.050;2023-11-21T14:57:46;0.10;99.90
22081;DHT22;11207;59.512;18.050;2023-11-21T15:00:20;0.00;99.90
22081;DHT22;11207;59.512;18.050;2023-11-21T15:03:04;0.00;99.90
22081;DHT22;11207;59.512;18.050;2023-11-21T15:05:31;0.00;99.90
22081;DHT22;11207;59.512;18.050;2023-11-21T15:07:58;-0.10;99.90
22081;DHT22;11207;59.512;18.050;2023-11-21T15:10:34;-0.20;99.90
22081;DHT22;11207;59.512;18.050;2023-11-21T15:13:14;-0.20;99.90
22081;DHT22;11207;59.512;18.050;2023-11-21T15:15:42;-0.10;99.90
22081;DHT22;11207;59.512;18.050;2023-11-21T15:18:08;-0.10;99.90
22081;DHT22;11207;59.512;18.050;2023-11-21T15:20:38;-0.20;99.90
22081;DHT22;11207;59.512;18.050;2023-11-21T15:23:04;-0.20;99.90
22081;DHT22;11207;59.512;18.050;2023-11-21T15:25:33;-0.20;99.90
22081;DHT22;11207;59.512;18.050;2023-11-21T15:27:59;-0.20;99.90
22081;DHT22;11207;59.512;18.050;2023-11-21T15:30:25;-0.20;99.90
22081;DHT22;11207;59.512;18.050;2023-11-21T15:32:52;-0.20;99.90
22081;DHT22;11207;59.512;18.050;2023-11-21T15:35:20;-0.20;99.90
22081;DHT22;11207;59.512;18.050;2023-11-21T15:37:46;-0.20;99.90
22081;DHT22;11207;59.512;18.050;2023-11-21T15:40:12;-0.30;99.90
22081;DHT22;11207;59.512;18.050;2023-11-21T15:42:40;-0.20;99.90
22081;DHT22;11207;59.512;18.050;2023-11-21T15:45:08;-0.20;99.90
22081;DHT22;11207;59.512;18.050;2023-11-21T15:47:34;-0.20;99.90
22081;DHT22;11207;59.512;18.050;2023-11-21T15:50:00;-0.20;99.90